createdAt,value
2019-04-14T00:00:53.259Z,1.30
2019-04-14T00:03:40.854Z,1.10
2019-04-14T00:06:11.664Z,1.10
2019-04-14T00:08:42.011Z,1.27
2019-04-14T00:11:12.600Z,1.10
2019-04-14T00:13:47.757Z,1.13
2019-04-14T00:16:18.945Z,1.27
2019-04-14T00:18:49.511Z,1.07
2019-04-14T00:21:21.532Z,1.20
2019-04-14T00:23:52.241Z,1.20
2019-04-14T00:26:33.376Z,1.30
2019-04-14T00:29:04.591Z,1.13
2019-04-14T00:31:35.166Z,1.10
2019-04-14T00:34:20.355Z,1.30
2019-04-14T00:37:09.889Z,1.07
2019-04-14T00:39:44.312Z,1.30
2019-04-14T00:42:32.708Z,1.47
2019-04-14T00:45:37.013Z,0.90
2019-04-14T00:48:19.266Z,1.30
2019-04-14T00:50:49.599Z,1.10
2019-04-14T00:53:20.741Z,1.20
2019-04-14T00:55:53.195Z,1.27
2019-04-14T00:58:23.643Z,1.20
2019-04-14T01:00:54.457Z,1.43
2019-04-14T01:03:24.833Z,1.40
2019-04-14T01:05:54.796Z,1.10
2019-04-14T01:08:25.268Z,0.93
2019-04-14T01:10:56.240Z,1.30
2019-04-14T01:13:26.809Z,1.00
2019-04-14T01:16:05.207Z,1.10
2019-04-14T01:18:29.861Z,1.20
2019-04-14T01:21:00.388Z,1.43
2019-04-14T01:23:30.992Z,1.33
2019-04-14T01:26:02.790Z,1.10
2019-04-14T01:28:37.476Z,1.07
2019-04-14T01:31:07.681Z,1.30
2019-04-14T01:33:40.154Z,1.30
2019-04-14T01:36:10.774Z,1.40
2019-04-14T01:38:41.297Z,1.67
2019-04-14T01:41:12.729Z,1.50
2019-04-14T01:43:43.321Z,1.20
2019-04-14T01:46:19.643Z,1.23
2019-04-14T01:48:47.449Z,1.20
2019-04-14T01:51:24.686Z,1.10
2019-04-14T01:54:19.926Z,1.20
2019-04-14T01:56:56.153Z,0.93
2019-04-14T01:59:26.256Z,1.00
2019-04-14T02:01:56.859Z,1.00
2019-04-14T02:04:27.285Z,1.00
2019-04-14T02:06:59.493Z,1.07
2019-04-14T02:09:29.574Z,0.87
2019-04-14T02:11:59.991Z,1.20
2019-04-14T02:14:30.336Z,1.10
2019-04-14T02:17:04.247Z,1.23
2019-04-14T02:19:34.936Z,1.00
2019-04-14T02:22:05.458Z,0.93
2019-04-14T02:24:37.355Z,0.90
2019-04-14T02:27:08.373Z,1.00
2019-04-14T02:29:41.151Z,1.07
2019-04-14T02:35:10.898Z,1.00
2019-04-14T02:37:43.341Z,0.90
2019-04-14T02:40:18.611Z,1.10
2019-04-14T02:42:51.890Z,0.90
2019-04-14T02:45:32.273Z,0.90
2019-04-14T02:50:23.245Z,0.90
2019-04-14T02:52:57.076Z,0.90
2019-04-14T02:55:21.600Z,1.00
2019-04-14T02:58:07.006Z,0.93
2019-04-14T03:00:31.826Z,1.10
2019-04-14T03:03:16.158Z,0.90
2019-04-14T03:05:37.562Z,0.80
2019-04-14T03:08:08.368Z,0.83
2019-04-14T03:10:39.844Z,1.00
2019-04-14T03:13:15.104Z,1.00
2019-04-14T03:15:53.709Z,1.20
2019-04-14T03:18:44.850Z,1.00
2019-04-14T03:21:40.545Z,1.20
2019-04-14T03:29:40.803Z,1.10
2019-04-14T03:32:28.892Z,0.97
2019-04-14T03:34:59.186Z,1.70
2019-04-14T03:39:46.050Z,1.17
2019-04-14T03:42:31.773Z,1.00
2019-04-14T03:47:25.410Z,1.30
2019-04-14T03:50:00.012Z,1.10
2019-04-14T03:52:50.094Z,0.87
2019-04-14T03:54:57.088Z,1.10
2019-04-14T03:57:12.512Z,1.20
2019-04-14T03:59:43.464Z,0.90
2019-04-14T04:02:13.994Z,1.13
2019-04-14T04:04:45.053Z,1.27
2019-04-14T04:07:15.339Z,1.10
2019-04-14T04:09:58.264Z,1.10
2019-04-14T04:12:29.245Z,1.17
2019-04-14T04:14:59.818Z,1.00
2019-04-14T04:17:45.075Z,1.10
2019-04-14T04:20:41.294Z,1.00
2019-04-14T04:23:23.302Z,1.30
2019-04-14T04:25:59.573Z,1.03
2019-04-14T04:28:47.601Z,1.00
2019-04-14T04:31:39.856Z,1.03
2019-04-14T04:34:27.764Z,1.00
2019-04-14T04:37:19.429Z,1.00
2019-04-14T04:39:51.812Z,1.13
2019-04-14T04:42:21.997Z,1.10
2019-04-14T04:44:53.275Z,1.07
2019-04-14T04:47:25.228Z,1.13
2019-04-14T04:49:55.431Z,1.10
2019-04-14T04:52:28.100Z,1.37
2019-04-14T04:54:58.089Z,1.20
2019-04-14T04:57:30.670Z,1.00
2019-04-14T05:00:01.209Z,1.07
2019-04-14T05:02:31.029Z,1.13
2019-04-14T05:05:02.043Z,1.20
2019-04-14T05:07:33.700Z,1.00
2019-04-14T05:10:37.151Z,1.20
2019-04-14T05:13:29.207Z,1.20
2019-04-14T05:16:02.142Z,1.10
2019-04-14T05:18:31.801Z,1.10
2019-04-14T05:21:02.313Z,1.17
2019-04-14T05:23:32.249Z,1.10
2019-04-14T05:26:03.264Z,1.00
2019-04-14T05:28:37.454Z,1.07
2019-04-14T05:31:07.889Z,1.40
2019-04-14T05:33:38.317Z,1.10
2019-04-14T05:36:08.794Z,1.20
2019-04-14T05:38:39.204Z,1.00
2019-04-14T05:41:09.219Z,0.83
2019-04-14T05:43:48.153Z,1.17
2019-04-14T05:46:12.213Z,1.10
2019-04-14T05:48:42.505Z,1.20
2019-04-14T05:51:13.641Z,1.17
2019-04-14T05:53:43.872Z,1.20
2019-04-14T05:56:14.937Z,1.30
2019-04-14T05:58:47.179Z,1.20
2019-04-14T06:01:18.655Z,1.27
2019-04-14T06:03:49.714Z,1.10
2019-04-14T06:06:21.397Z,1.40
2019-04-14T06:08:52.641Z,1.03
2019-04-14T06:11:22.964Z,1.43
2019-04-14T06:13:53.888Z,1.30
2019-04-14T06:16:24.021Z,1.40
2019-04-14T06:18:57.478Z,1.13
2019-04-14T06:21:27.410Z,1.23
2019-04-14T06:23:58.512Z,1.40
2019-04-14T06:26:28.486Z,1.40
2019-04-14T06:28:59.064Z,1.10
2019-04-14T06:31:56.846Z,1.30
2019-04-14T06:34:32.557Z,1.57
2019-04-14T06:37:07.907Z,1.30
2019-04-14T06:39:41.983Z,1.40
2019-04-14T06:42:12.107Z,1.50
2019-04-14T06:44:43.204Z,1.50
2019-04-14T06:47:14.785Z,1.30
2019-04-14T06:49:49.520Z,1.60
2019-04-14T06:52:19.655Z,1.40
2019-04-14T06:54:51.419Z,1.37
2019-04-14T06:57:22.845Z,1.77
2019-04-14T06:59:55.472Z,1.20
2019-04-14T07:02:25.886Z,1.23
2019-04-14T07:04:56.758Z,1.37
2019-04-14T07:07:26.707Z,1.50
2019-04-14T07:09:57.626Z,1.53
2019-04-14T07:12:27.369Z,1.40
2019-04-14T07:14:57.285Z,1.50
2019-04-14T07:17:28.281Z,1.47
2019-04-14T07:20:02.600Z,1.40
2019-04-14T07:22:33.598Z,1.37
2019-04-14T07:25:03.515Z,1.17
2019-04-14T07:27:34.022Z,1.27
2019-04-14T07:30:32.693Z,1.20
2019-04-14T07:33:21.953Z,1.57
2019-04-14T07:36:13.307Z,1.43
2019-04-14T07:38:49.409Z,1.47
2019-04-14T07:41:32.478Z,1.40
2019-04-14T07:44:21.421Z,2.03
2019-04-14T07:47:09.845Z,1.30
2019-04-14T07:50:14.774Z,1.13
2019-04-14T07:52:58.977Z,1.57
2019-04-14T07:55:47.166Z,1.40
2019-04-14T07:58:31.107Z,1.90
2019-04-14T08:01:13.162Z,1.23
2019-04-14T08:04:03.059Z,1.47
2019-04-14T08:06:33.136Z,1.40
2019-04-14T08:09:04.573Z,1.37
2019-04-14T08:11:38.018Z,1.30
2019-04-14T08:14:09.533Z,1.37
2019-04-14T08:16:40.019Z,1.47
2019-04-14T08:19:10.878Z,1.40
2019-04-14T08:21:41.370Z,1.37
2019-04-14T08:24:11.797Z,1.57
2019-04-14T08:26:42.306Z,1.17
2019-04-14T08:29:12.979Z,1.77
2019-04-14T08:31:42.918Z,1.40
2019-04-14T08:34:13.303Z,1.13
2019-04-14T08:36:44.583Z,1.30
2019-04-14T08:39:15.609Z,1.57
2019-04-14T08:41:57.726Z,1.40
2019-04-14T08:44:36.165Z,1.07
2019-04-14T08:47:23.966Z,1.30
2019-04-14T08:50:08.521Z,1.20
2019-04-14T08:52:46.418Z,1.10
2019-04-14T08:55:40.825Z,1.30
2019-04-14T08:58:20.369Z,1.03
2019-04-14T09:01:09.593Z,1.10
2019-04-14T09:03:45.890Z,1.40
2019-04-14T09:06:22.729Z,1.17
2019-04-14T09:09:13.140Z,1.60
2019-04-14T09:11:48.298Z,1.33
2019-04-14T09:14:18.826Z,1.37
2019-04-14T09:16:50.740Z,1.57
2019-04-14T09:19:21.144Z,1.77
2019-04-14T09:21:52.402Z,1.30
2019-04-14T09:24:33.087Z,1.30
2019-04-14T09:27:03.389Z,1.50
2019-04-14T09:29:34.429Z,1.37
2019-04-14T09:32:06.609Z,2.00
2019-04-14T09:34:37.165Z,2.10
2019-04-14T09:37:08.752Z,1.50
2019-04-14T09:39:39.049Z,1.40
2019-04-14T09:42:10.514Z,1.93
2019-04-14T09:44:41.015Z,1.50
2019-04-14T09:47:11.442Z,1.47
2019-04-14T09:49:52.082Z,1.60
2019-04-14T09:52:22.061Z,1.67
2019-04-14T09:54:52.442Z,2.10
2019-04-14T09:57:23.521Z,1.60
2019-04-14T09:59:55.057Z,1.50
2019-04-14T10:02:25.493Z,1.70
2019-04-14T10:04:55.941Z,1.70
2019-04-14T10:07:27.070Z,1.67
2019-04-14T10:10:00.525Z,1.80
2019-04-14T10:12:31.610Z,1.50
2019-04-14T10:15:01.717Z,1.43
2019-04-14T10:17:34.031Z,1.70
2019-04-14T10:20:04.569Z,1.80
2019-04-14T10:22:35.600Z,2.03
2019-04-14T10:25:06.936Z,1.73
2019-04-14T10:27:38.265Z,1.40
2019-04-14T10:30:08.624Z,1.60
2019-04-14T10:32:39.569Z,1.50
2019-04-14T10:35:09.913Z,2.10
2019-04-14T10:37:41.450Z,1.50
2019-04-14T10:40:11.900Z,1.60
2019-04-14T10:42:42.361Z,1.57
2019-04-14T10:45:14.479Z,1.90
2019-04-14T10:47:44.790Z,1.90
2019-04-14T10:50:15.732Z,1.83
2019-04-14T10:52:46.161Z,1.80
2019-04-14T10:55:16.597Z,1.93
2019-04-14T10:57:52.497Z,1.77
2019-04-14T11:00:24.638Z,1.83
2019-04-14T11:02:54.465Z,2.10
2019-04-14T11:05:27.150Z,2.13
2019-04-14T11:07:58.029Z,1.80
2019-04-14T11:10:28.949Z,1.60
2019-04-14T11:12:59.429Z,1.87
2019-04-14T11:15:30.676Z,4.30
2019-04-14T11:18:02.105Z,2.17
2019-04-14T11:20:35.641Z,1.60
2019-04-14T11:23:07.531Z,1.70
2019-04-14T11:25:40.024Z,2.00
2019-04-14T11:28:11.961Z,1.50
2019-04-14T11:30:43.319Z,1.70
2019-04-14T11:33:35.456Z,1.83
2019-04-14T11:36:24.137Z,2.43
2019-04-14T11:39:20.301Z,1.60
2019-04-14T11:41:50.961Z,1.87
2019-04-14T11:44:22.591Z,1.97
2019-04-14T11:46:54.169Z,2.10
2019-04-14T11:49:26.525Z,1.77
2019-04-14T11:51:59.761Z,1.50
2019-04-14T11:54:29.793Z,1.63
2019-04-14T11:57:00.220Z,1.50
2019-04-14T11:59:43.749Z,2.03
2019-04-14T12:02:25.181Z,2.03
2019-04-14T12:05:14.241Z,2.20
2019-04-14T12:08:09.709Z,1.90
2019-04-14T12:10:39.657Z,1.57
2019-04-14T12:13:10.238Z,1.77
2019-04-14T12:15:45.077Z,1.70
2019-04-14T12:18:16.090Z,1.70
2019-04-14T12:20:47.040Z,1.67
2019-04-14T12:23:20.028Z,1.70
2019-04-14T12:25:50.420Z,2.07
2019-04-14T12:28:21.918Z,1.50
2019-04-14T12:30:53.758Z,1.60
2019-04-14T12:33:24.503Z,1.60
2019-04-14T12:35:54.518Z,1.20
2019-04-14T12:38:27.022Z,1.70
2019-04-14T12:41:00.517Z,1.93
2019-04-14T12:43:48.313Z,1.33
2019-04-14T12:46:30.357Z,1.50
2019-04-14T12:49:18.943Z,1.90
2019-04-14T12:52:07.102Z,1.53
2019-04-14T12:54:37.619Z,1.87
2019-04-14T12:57:09.289Z,1.50
2019-04-14T12:59:39.513Z,1.80
2019-04-14T13:02:16.842Z,1.70
2019-04-14T13:04:50.235Z,1.33
2019-04-14T13:07:21.748Z,1.60
2019-04-14T13:09:52.253Z,1.53
2019-04-14T13:12:22.165Z,1.60
2019-04-14T13:14:52.323Z,1.80
2019-04-14T13:17:22.877Z,1.50
2019-04-14T13:19:54.697Z,1.33
2019-04-14T13:22:33.847Z,1.33
2019-04-14T13:25:02.653Z,1.47
2019-04-14T13:27:32.985Z,1.57
2019-04-14T13:30:02.973Z,1.20
2019-04-14T13:32:36.172Z,1.50
2019-04-14T13:35:05.713Z,1.83
2019-04-14T13:37:35.703Z,1.93
2019-04-14T13:40:06.813Z,1.50
2019-04-14T13:42:40.297Z,1.50
2019-04-14T13:45:11.158Z,1.37
2019-04-14T13:47:41.640Z,1.77
2019-04-14T13:50:12.698Z,1.70
2019-04-14T13:52:47.147Z,1.50
2019-04-14T13:55:16.698Z,1.60
2019-04-14T13:57:49.180Z,1.57
2019-04-14T14:00:20.436Z,1.50
2019-04-14T14:02:50.294Z,1.30
2019-04-14T14:05:21.643Z,1.30
2019-04-14T14:07:54.626Z,1.50
2019-04-14T14:10:25.116Z,1.87
2019-04-14T14:13:16.478Z,1.33
2019-04-14T14:16:16.324Z,2.00
2019-04-14T14:18:56.873Z,1.40
2019-04-14T14:21:50.795Z,1.30
2019-04-14T14:24:31.047Z,1.60
2019-04-14T14:27:01.784Z,1.70
2019-04-14T14:29:31.754Z,2.50
2019-04-14T14:32:03.633Z,2.30
2019-04-14T14:34:37.422Z,4.10
2019-04-14T14:37:07.349Z,7.10
2019-04-14T14:39:39.334Z,2.10
2019-04-14T14:42:12.549Z,1.40
2019-04-14T14:44:47.493Z,1.67
2019-04-14T14:47:26.217Z,2.00
2019-04-14T14:50:15.591Z,1.77
2019-04-14T14:52:46.074Z,1.53
2019-04-14T14:55:16.433Z,1.90
2019-04-14T14:57:46.673Z,1.70
2019-04-14T15:00:28.181Z,1.37
2019-04-14T15:03:00.466Z,1.83
2019-04-14T15:05:31.424Z,1.37
2019-04-14T15:08:05.005Z,1.90
2019-04-14T15:10:36.895Z,1.50
2019-04-14T15:13:07.414Z,2.60
2019-04-14T15:15:45.659Z,1.77
2019-04-14T15:18:16.660Z,1.80
2019-04-14T15:20:49.553Z,1.37
2019-04-14T15:23:25.326Z,1.60
2019-04-14T15:25:52.722Z,1.27
2019-04-14T15:28:24.637Z,1.50
2019-04-14T15:30:56.053Z,1.60
2019-04-14T15:33:27.107Z,1.43
2019-04-14T15:35:59.829Z,1.63
2019-04-14T15:38:29.718Z,2.60
2019-04-14T15:41:00.213Z,1.93
2019-04-14T15:43:31.234Z,1.40
2019-04-14T15:46:05.069Z,1.50
2019-04-14T15:51:26.741Z,1.30
2019-04-14T15:53:56.558Z,1.53
2019-04-14T15:56:51.805Z,1.50
2019-04-14T15:59:43.120Z,1.77
2019-04-14T16:02:25.357Z,1.30
2019-04-14T16:05:16.761Z,1.63
2019-04-14T16:08:09.133Z,1.70
2019-04-14T16:10:56.774Z,1.40
2019-04-14T16:13:33.332Z,1.50
2019-04-14T16:16:15.001Z,1.40
2019-04-14T16:19:04.115Z,1.70
2019-04-14T16:21:34.249Z,1.17
2019-04-14T16:24:05.194Z,1.70
2019-04-14T16:27:00.332Z,1.40
2019-04-14T16:29:51.637Z,1.13
2019-04-14T16:32:57.157Z,1.30
2019-04-14T16:35:29.546Z,2.00
2019-04-14T16:38:00.569Z,1.40
2019-04-14T16:40:34.502Z,1.57
2019-04-14T16:43:04.841Z,1.30
2019-04-14T16:45:36.845Z,1.30
2019-04-14T16:48:06.460Z,1.30
2019-04-14T16:50:45.389Z,1.27
2019-04-14T16:53:38.329Z,1.27
2019-04-14T16:56:35.969Z,1.30
2019-04-14T16:59:37.462Z,1.53
2019-04-14T17:05:04.723Z,1.60
2019-04-14T17:07:35.304Z,1.30
2019-04-14T17:10:21.857Z,1.40
2019-04-14T17:12:55.154Z,1.10
2019-04-14T17:15:44.819Z,1.37
2019-04-14T17:18:36.073Z,1.13
2019-04-14T17:21:23.712Z,1.67
2019-04-14T17:24:16.795Z,1.23
2019-04-14T17:26:47.585Z,1.40
2019-04-14T17:29:40.903Z,2.03
2019-04-14T17:32:35.513Z,1.70
2019-04-14T17:35:27.545Z,1.30
2019-04-14T17:38:04.877Z,1.30
2019-04-14T17:41:07.377Z,1.10
2019-04-14T17:44:05.757Z,1.30
2019-04-14T17:46:47.489Z,1.20
2019-04-14T17:49:40.922Z,1.40
2019-04-14T17:52:29.852Z,2.33
2019-04-14T17:55:19.113Z,1.60
2019-04-14T17:58:09.514Z,1.67
2019-04-14T18:01:01.726Z,2.30
2019-04-14T18:03:42.260Z,1.63
2019-04-14T18:06:17.029Z,2.30
2019-04-14T18:09:12.108Z,1.80
2019-04-14T18:11:50.229Z,1.97
2019-04-14T18:14:45.302Z,1.70
2019-04-14T18:17:50.192Z,1.43
2019-04-14T18:20:26.576Z,1.50
2019-04-14T18:22:56.901Z,2.17
2019-04-14T18:25:27.929Z,1.33
2019-04-14T18:28:13.544Z,1.47
2019-04-14T18:30:50.729Z,1.77
2019-04-14T18:33:37.150Z,1.40
2019-04-14T18:36:14.045Z,1.83
2019-04-14T18:38:51.605Z,2.30
2019-04-14T18:41:29.724Z,4.60
2019-04-14T18:44:29.123Z,8.67
2019-04-14T18:47:14.169Z,5.50
2019-04-14T18:50:09.458Z,4.30
2019-04-14T18:52:57.165Z,3.93
2019-04-14T18:55:49.094Z,3.63
2019-04-14T18:58:35.738Z,2.60
2019-04-14T19:01:21.401Z,2.67
2019-04-14T19:03:51.788Z,2.23
2019-04-14T19:06:22.415Z,2.10
2019-04-14T19:08:53.693Z,2.00
2019-04-14T19:11:57.849Z,2.90
2019-04-14T19:14:35.471Z,1.90
2019-04-14T19:17:22.216Z,1.80
2019-04-14T19:20:01.249Z,1.90
2019-04-14T19:22:27.576Z,1.50
2019-04-14T19:25:07.847Z,2.20
2019-04-14T19:27:31.413Z,1.97
2019-04-14T19:30:04.794Z,1.80
2019-04-14T19:32:35.385Z,1.80
2019-04-14T19:35:05.865Z,1.80
2019-04-14T19:37:36.993Z,1.73
2019-04-14T19:40:07.611Z,2.17
2019-04-14T19:42:39.638Z,1.70
2019-04-14T19:45:10.237Z,1.70
2019-04-14T19:47:41.205Z,1.53
2019-04-14T19:50:11.058Z,1.40
2019-04-14T19:52:43.574Z,2.07
2019-04-14T19:55:20.573Z,2.27
2019-04-14T19:57:56.501Z,1.97
2019-04-14T20:00:29.450Z,2.43
2019-04-14T20:03:02.661Z,1.60
2019-04-14T20:05:33.779Z,1.50
2019-04-14T20:08:14.779Z,1.70
2019-04-14T20:10:45.413Z,1.90
2019-04-14T20:13:16.404Z,1.63
2019-04-14T20:16:23.458Z,1.43
2019-04-14T20:19:10.622Z,1.60
2019-04-14T20:21:56.217Z,1.90
2019-04-14T20:24:32.529Z,1.90
2019-04-14T20:27:13.016Z,1.80
2019-04-14T20:29:48.214Z,1.83
2019-04-14T20:32:21.370Z,1.70
2019-04-14T20:34:52.629Z,2.17
2019-04-14T20:37:23.244Z,1.83
2019-04-14T20:39:54.053Z,2.50
2019-04-14T20:42:24.537Z,3.73
2019-04-14T20:44:55.089Z,2.33
2019-04-14T20:47:25.816Z,3.53
2019-04-14T20:49:56.821Z,3.70
2019-04-14T20:52:27.769Z,3.33
2019-04-14T20:54:59.220Z,3.60
2019-04-14T20:57:29.733Z,3.43
2019-04-14T21:00:01.571Z,3.60
2019-04-14T21:02:56.246Z,3.87
2019-04-14T21:05:54.723Z,3.57
2019-04-14T21:08:42.880Z,3.97
2019-04-14T21:11:26.686Z,2.93
2019-04-14T21:14:24.398Z,3.87
2019-04-14T21:17:19.639Z,2.97
2019-04-14T21:20:11.511Z,2.60
2019-04-14T21:22:50.071Z,2.77
2019-04-14T21:25:37.950Z,3.30
2019-04-14T21:28:17.395Z,3.13
2019-04-14T21:31:03.930Z,3.60
2019-04-14T21:33:50.073Z,3.43
2019-04-14T21:36:29.045Z,2.87
2019-04-14T21:39:31.117Z,3.70
2019-04-14T21:42:01.554Z,3.40
2019-04-14T21:44:33.052Z,3.10
2019-04-14T21:47:03.581Z,3.90
2019-04-14T21:49:33.957Z,3.13
2019-04-14T21:52:24.485Z,3.37
2019-04-14T21:54:54.434Z,2.70
2019-04-14T21:57:52.568Z,2.53
2019-04-14T22:00:53.896Z,2.70
2019-04-14T22:03:43.318Z,2.80
2019-04-14T22:06:19.937Z,2.67
2019-04-14T22:08:52.462Z,1.93
2019-04-14T22:11:41.035Z,2.40
2019-04-14T22:14:10.973Z,4.00
2019-04-14T22:16:40.906Z,3.63
2019-04-14T22:19:11.122Z,3.50
2019-04-14T22:21:41.014Z,3.60
2019-04-14T22:24:11.898Z,2.50
2019-04-14T22:26:46.596Z,3.00
2019-04-14T22:29:17.097Z,2.40
2019-04-14T22:31:47.548Z,2.20
2019-04-14T22:34:18.576Z,3.37
2019-04-14T22:36:49.661Z,2.90
2019-04-14T22:39:19.561Z,2.70
2019-04-14T22:41:50.617Z,2.53
2019-04-14T22:44:22.133Z,2.77
2019-04-14T22:46:52.774Z,2.80
2019-04-14T22:49:24.513Z,3.20
2019-04-14T22:51:55.158Z,2.80
2019-04-14T22:54:26.238Z,2.97
2019-04-14T22:56:57.805Z,3.63
2019-04-14T22:59:28.217Z,2.90
2019-04-14T23:02:06.367Z,4.07
2019-04-14T23:04:48.463Z,3.10
2019-04-14T23:07:41.225Z,3.67
2019-04-14T23:10:22.841Z,3.23
2019-04-14T23:13:07.058Z,3.03
2019-04-14T23:16:01.893Z,3.77
2019-04-14T23:18:37.457Z,3.63
2019-04-14T23:21:32.267Z,2.87
2019-04-14T23:24:15.677Z,2.77
2019-04-14T23:26:52.229Z,4.07
2019-04-14T23:29:18.479Z,3.80
2019-04-14T23:31:48.933Z,3.93
2019-04-14T23:34:19.449Z,2.60
2019-04-14T23:36:49.921Z,3.03
2019-04-14T23:39:21.205Z,2.60
2019-04-14T23:41:53.209Z,2.90
2019-04-14T23:44:24.544Z,2.93
2019-04-14T23:46:54.397Z,2.53
2019-04-14T23:49:26.580Z,2.80
2019-04-14T23:51:57.546Z,2.73
2019-04-14T23:54:28.473Z,3.33
2019-04-14T23:57:05.225Z,2.77
2019-04-14T23:59:32.185Z,2.53
